Terminal Aerodrome Forecast
Issued by NWS

Home | Current Version | Previous Version | Text Only | Print | Product List | Glossary On
Versions: 1 2 3 4 5 6 7 8 9 10 11 12 13 14 15 16 17 18 19 20 21 22 23 24 25 26
000
FTUS45 KLKN 261720
TAFELY
TAF
KELY 261720Z 2618/2718 16008KT P6SM BKN150
     FM262100 20012G22KT P6SM SCT050 BKN120
     FM270600 18014KT P6SM VCSH BKN050 OVC080
      TEMPO 2710/2714 6SM -SN BR SCT020 BKN030
     FM271400 24010KT 6SM -SN BR BKN018 OVC030=

USA.gov is the U.S. government's official web portal to all federal, state and local government web resources and services.